sensor_id;sensor_type;location;lat;lon;timestamp;pressure;altitude;pressure_sealevel;temperature;humidity
69035;BME280;56091;55.756;37.412;2022-09-29T00:03:32;97877.97;;;8.83;81.72
69035;BME280;56091;55.756;37.412;2022-09-29T00:08:33;97876.34;;;8.87;81.74
69035;BME280;56091;55.756;37.412;2022-09-29T00:13:34;97876.84;;;8.94;81.53
69035;BME280;56091;55.756;37.412;2022-09-29T00:18:40;97870.41;;;8.90;80.72
69035;BME280;56091;55.756;37.412;2022-09-29T00:23:40;97875.69;;;9.05;80.61
69035;BME280;56091;55.756;37.412;2022-09-29T00:28:47;97882.94;;;9.10;80.24
69035;BME280;56091;55.756;37.412;2022-09-29T00:33:49;97885.63;;;9.10;79.97
69035;BME280;56091;55.756;37.412;2022-09-29T00:38:51;97891.84;;;9.05;80.21
69035;BME280;56091;55.756;37.412;2022-09-29T00:49:22;97903.31;;;9.16;79.91
69035;BME280;56091;55.756;37.412;2022-09-29T00:54:25;97905.22;;;9.15;79.46
69035;BME280;56091;55.756;37.412;2022-09-29T00:59:39;97911.44;;;9.11;79.37
69035;BME280;56091;55.756;37.412;2022-09-29T01:04:43;97916.22;;;9.19;79.30
69035;BME280;56091;55.756;37.412;2022-09-29T01:09:53;97917.53;;;9.27;79.11
69035;BME280;56091;55.756;37.412;2022-09-29T01:14:55;97906.97;;;9.35;79.24
69035;BME280;56091;55.756;37.412;2022-09-29T01:20:11;97900.75;;;9.40;79.02
69035;BME280;56091;55.756;37.412;2022-09-29T01:41:58;97924.81;;;9.61;78.00
69035;BME280;56091;55.756;37.412;2022-09-29T01:47:30;97930.44;;;9.64;77.77
69035;BME280;56091;55.756;37.412;2022-09-29T01:52:40;97947.50;;;9.54;77.63
69035;BME280;56091;55.756;37.412;2022-09-29T01:57:57;97919.56;;;9.45;77.76
69035;BME280;56091;55.756;37.412;2022-09-29T02:08:29;97941.09;;;9.45;78.22
69035;BME280;56091;55.756;37.412;2022-09-29T02:13:39;97951.81;;;9.50;77.56
69035;BME280;56091;55.756;37.412;2022-09-29T02:19:07;97949.72;;;9.42;77.46
69035;BME280;56091;55.756;37.412;2022-09-29T02:24:11;97942.13;;;9.49;77.47
69035;BME280;56091;55.756;37.412;2022-09-29T02:29:12;97941.03;;;9.50;76.97
69035;BME280;56091;55.756;37.412;2022-09-29T02:34:18;97931.66;;;9.48;77.05
69035;BME280;56091;55.756;37.412;2022-09-29T02:55:23;97945.38;;;9.46;76.71
69035;BME280;56091;55.756;37.412;2022-09-29T03:00:25;97949.66;;;9.52;76.24
69035;BME280;56091;55.756;37.412;2022-09-29T03:05:27;97948.06;;;9.81;75.80
69035;BME280;56091;55.756;37.412;2022-09-29T03:10:28;97954.28;;;10.10;74.31
69035;BME280;56091;55.756;37.412;2022-09-29T03:15:29;97958.97;;;10.29;72.64
69035;BME280;56091;55.756;37.412;2022-09-29T03:20:30;97970.56;;;10.29;72.08
69035;BME280;56091;55.756;37.412;2022-09-29T03:25:33;97967.44;;;10.17;72.32
69035;BME280;56091;55.756;37.412;2022-09-29T03:30:34;97961.34;;;10.06;72.48
69035;BME280;56091;55.756;37.412;2022-09-29T03:35:38;97968.94;;;9.99;72.75
69035;BME280;56091;55.756;37.412;2022-09-29T03:40:39;97983.25;;;9.94;73.24
69035;BME280;56091;55.756;37.412;2022-09-29T03:45:52;97985.72;;;9.91;73.07
69035;BME280;56091;55.756;37.412;2022-09-29T03:50:54;97981.09;;;9.57;73.58
69035;BME280;56091;55.756;37.412;2022-09-29T03:55:56;97988.47;;;9.81;73.87
69035;BME280;56091;55.756;37.412;2022-09-29T04:00:58;97980.69;;;9.79;73.39
69035;BME280;56091;55.756;37.412;2022-09-29T04:06:00;97991.09;;;9.91;72.84
69035;BME280;56091;55.756;37.412;2022-09-29T04:11:04;97969.88;;;9.84;73.12
69035;BME280;56091;55.756;37.412;2022-09-29T04:16:05;97996.91;;;10.03;72.74
69035;BME280;56091;55.756;37.412;2022-09-29T04:21:07;97993.72;;;10.01;72.29
69035;BME280;56091;55.756;37.412;2022-09-29T04:26:08;97997.41;;;10.10;71.80
69035;BME280;56091;55.756;37.412;2022-09-29T04:31:09;97989.03;;;10.12;71.50
69035;BME280;56091;55.756;37.412;2022-09-29T04:36:09;98001.84;;;10.25;70.56
69035;BME280;56091;55.756;37.412;2022-09-29T04:41:10;97995.16;;;10.23;70.88
69035;BME280;56091;55.756;37.412;2022-09-29T04:46:12;97995.34;;;10.31;70.34
69035;BME280;56091;55.756;37.412;2022-09-29T04:51:13;97999.69;;;10.57;70.67
69035;BME280;56091;55.756;37.412;2022-09-29T04:56:14;98004.72;;;10.68;70.12
69035;BME280;56091;55.756;37.412;2022-09-29T05:01:15;97986.44;;;10.60;69.16
69035;BME280;56091;55.756;37.412;2022-09-29T05:06:16;97993.03;;;10.73;69.73
69035;BME280;56091;55.756;37.412;2022-09-29T05:11:18;97995.34;;;10.85;69.69
69035;BME280;56091;55.756;37.412;2022-09-29T05:16:18;98019.22;;;10.72;69.14
69035;BME280;56091;55.756;37.412;2022-09-29T05:21:19;98034.41;;;10.63;69.44
69035;BME280;56091;55.756;37.412;2022-09-29T05:26:20;98029.19;;;10.48;70.08
69035;BME280;56091;55.756;37.412;2022-09-29T05:31:22;98045.13;;;10.44;70.43
69035;BME280;56091;55.756;37.412;2022-09-29T05:36:24;98037.34;;;10.38;70.36
69035;BME280;56091;55.756;37.412;2022-09-29T05:41:24;98036.75;;;10.46;70.17
69035;BME280;56091;55.756;37.412;2022-09-29T05:46:26;98040.19;;;10.51;70.61
69035;BME280;56091;55.756;37.412;2022-09-29T05:51:27;98051.16;;;10.60;70.29
69035;BME280;56091;55.756;37.412;2022-09-29T05:56:28;98027.91;;;10.40;70.40
69035;BME280;56091;55.756;37.412;2022-09-29T06:01:31;98058.16;;;10.61;71.10
69035;BME280;56091;55.756;37.412;2022-09-29T06:06:31;98053.06;;;10.60;71.03
69035;BME280;56091;55.756;37.412;2022-09-29T06:11:33;98052.16;;;10.69;71.21
69035;BME280;56091;55.756;37.412;2022-09-29T06:16:34;98054.75;;;10.80;71.38
69035;BME280;56091;55.756;37.412;2022-09-29T06:21:35;98046.78;;;11.18;70.36
69035;BME280;56091;55.756;37.412;2022-09-29T06:26:40;98038.34;;;11.43;69.90
69035;BME280;56091;55.756;37.412;2022-09-29T06:31:41;98042.69;;;11.63;69.27
69035;BME280;56091;55.756;37.412;2022-09-29T06:36:43;98039.81;;;11.55;69.57
69035;BME280;56091;55.756;37.412;2022-09-29T06:42:03;98047.88;;;11.36;70.44
69035;BME280;56091;55.756;37.412;2022-09-29T06:47:04;98061.16;;;11.32;71.10
69035;BME280;56091;55.756;37.412;2022-09-29T06:52:14;98062.50;;;11.35;71.31
69035;BME280;56091;55.756;37.412;2022-09-29T06:57:14;98073.28;;;11.35;71.94
69035;BME280;56091;55.756;37.412;2022-09-29T07:02:15;98087.59;;;11.35;72.65
69035;BME280;56091;55.756;37.412;2022-09-29T07:07:16;98080.66;;;11.29;73.05
69035;BME280;56091;55.756;37.412;2022-09-29T07:12:17;98096.72;;;11.39;73.09
69035;BME280;56091;55.756;37.412;2022-09-29T07:17:18;98093.31;;;11.52;72.47
69035;BME280;56091;55.756;37.412;2022-09-29T07:22:18;98089.38;;;11.64;72.46
69035;BME280;56091;55.756;37.412;2022-09-29T07:27:19;98094.34;;;11.76;71.90
69035;BME280;56091;55.756;37.412;2022-09-29T07:32:23;98091.56;;;12.05;70.77
69035;BME280;56091;55.756;37.412;2022-09-29T07:37:25;98096.41;;;12.41;69.84
69035;BME280;56091;55.756;37.412;2022-09-29T07:42:27;98103.81;;;12.82;68.03
69035;BME280;56091;55.756;37.412;2022-09-29T07:47:28;98073.31;;;12.62;67.41
69035;BME280;56091;55.756;37.412;2022-09-29T07:52:32;98114.13;;;12.80;67.70
69035;BME280;56091;55.756;37.412;2022-09-29T07:57:34;98127.91;;;12.97;67.00
69035;BME280;56091;55.756;37.412;2022-09-29T08:02:35;98130.88;;;12.82;67.62
69035;BME280;56091;55.756;37.412;2022-09-29T08:07:35;98143.84;;;12.52;68.98
69035;BME280;56091;55.756;37.412;2022-09-29T08:12:36;98137.56;;;12.70;68.75
69035;BME280;56091;55.756;37.412;2022-09-29T08:17:37;98153.94;;;12.79;68.45
69035;BME280;56091;55.756;37.412;2022-09-29T08:22:38;98137.47;;;12.76;68.25
69035;BME280;56091;55.756;37.412;2022-09-29T08:27:39;98165.97;;;12.87;68.46
69035;BME280;56091;55.756;37.412;2022-09-29T08:32:40;98180.50;;;12.91;68.38
69035;BME280;56091;55.756;37.412;2022-09-29T08:37:41;98169.47;;;12.87;68.30
69035;BME280;56091;55.756;37.412;2022-09-29T08:43:07;98169.63;;;12.96;68.37
69035;BME280;56091;55.756;37.412;2022-09-29T08:48:19;98188.25;;;13.31;67.55
69035;BME280;56091;55.756;37.412;2022-09-29T08:53:23;98175.34;;;13.41;66.94
69035;BME280;56091;55.756;37.412;2022-09-29T08:58:25;98186.88;;;13.61;66.54
69035;BME280;56091;55.756;37.412;2022-09-29T09:25:39;98218.00;;;13.77;67.33
69035;BME280;56091;55.756;37.412;2022-09-29T09:30:50;98219.47;;;13.70;67.22
69035;BME280;56091;55.756;37.412;2022-09-29T09:35:57;98225.88;;;13.32;68.61
69035;BME280;56091;55.756;37.412;2022-09-29T09:41:01;98224.16;;;13.03;69.69
69035;BME280;56091;55.756;37.412;2022-09-29T09:56:59;98220.38;;;13.18;69.87
69035;BME280;56091;55.756;37.412;2022-09-29T10:02:03;98216.88;;;13.18;69.18
69035;BME280;56091;55.756;37.412;2022-09-29T10:07:03;98219.50;;;13.23;68.95
69035;BME280;56091;55.756;37.412;2022-09-29T10:12:14;98236.03;;;13.21;69.09
69035;BME280;56091;55.756;37.412;2022-09-29T10:17:18;98255.00;;;12.88;70.50
69035;BME280;56091;55.756;37.412;2022-09-29T10:22:22;98259.56;;;12.88;69.95
69035;BME280;56091;55.756;37.412;2022-09-29T10:27:24;98270.06;;;12.76;70.48
69035;BME280;56091;55.756;37.412;2022-09-29T10:32:30;98272.31;;;12.68;70.96
69035;BME280;56091;55.756;37.412;2022-09-29T10:37:42;98287.03;;;12.62;71.49
69035;BME280;56091;55.756;37.412;2022-09-29T10:42:47;98289.72;;;12.62;71.58
69035;BME280;56091;55.756;37.412;2022-09-29T10:53:03;98307.66;;;12.77;71.17
69035;BME280;56091;55.756;37.412;2022-09-29T10:58:23;98289.50;;;12.59;70.83
69035;BME280;56091;55.756;37.412;2022-09-29T11:03:25;98315.25;;;12.75;70.99
69035;BME280;56091;55.756;37.412;2022-09-29T11:08:27;98325.56;;;12.73;71.01
69035;BME280;56091;55.756;37.412;2022-09-29T11:18:34;98327.56;;;12.86;70.32
69035;BME280;56091;55.756;37.412;2022-09-29T11:24:08;98333.69;;;13.11;69.58
69035;BME280;56091;55.756;37.412;2022-09-29T11:29:31;98322.56;;;13.78;66.62
69035;BME280;56091;55.756;37.412;2022-09-29T11:45:10;98332.34;;;14.35;63.84
69035;BME280;56091;55.756;37.412;2022-09-29T12:02:01;98363.50;;;14.65;62.13
69035;BME280;56091;55.756;37.412;2022-09-29T12:17:33;98366.66;;;14.81;61.78
69035;BME280;56091;55.756;37.412;2022-09-29T12:22:35;98370.66;;;14.97;61.84
69035;BME280;56091;55.756;37.412;2022-09-29T12:27:39;98370.88;;;14.87;61.63
69035;BME280;56091;55.756;37.412;2022-09-29T12:32:55;98378.72;;;14.89;61.61
69035;BME280;56091;55.756;37.412;2022-09-29T12:38:14;98359.66;;;14.80;62.10
69035;BME280;56091;55.756;37.412;2022-09-29T12:43:32;98380.31;;;15.03;61.64
69035;BME280;56091;55.756;37.412;2022-09-29T12:48:50;98398.72;;;14.93;62.38
69035;BME280;56091;55.756;37.412;2022-09-29T13:15:12;98406.06;;;14.37;63.71
69035;BME280;56091;55.756;37.412;2022-09-29T13:20:41;98419.84;;;14.27;63.85
69035;BME280;56091;55.756;37.412;2022-09-29T13:26:04;98426.75;;;14.19;64.64
69035;BME280;56091;55.756;37.412;2022-09-29T13:31:11;98402.66;;;14.17;64.30
69035;BME280;56091;55.756;37.412;2022-09-29T13:36:36;98424.34;;;14.31;64.48
69035;BME280;56091;55.756;37.412;2022-09-29T13:41:39;98425.38;;;14.35;64.51
69035;BME280;56091;55.756;37.412;2022-09-29T13:46:40;98427.19;;;14.40;64.14
69035;BME280;56091;55.756;37.412;2022-09-29T13:51:45;98434.00;;;14.51;64.16
69035;BME280;56091;55.756;37.412;2022-09-29T14:02:42;98446.78;;;14.51;64.41
69035;BME280;56091;55.756;37.412;2022-09-29T14:07:49;98439.88;;;14.58;63.60
69035;BME280;56091;55.756;37.412;2022-09-29T14:13:07;98449.91;;;14.72;63.26
69035;BME280;56091;55.756;37.412;2022-09-29T14:18:35;98451.81;;;14.85;63.69
69035;BME280;56091;55.756;37.412;2022-09-29T14:28:51;98454.34;;;15.68;61.19
69035;BME280;56091;55.756;37.412;2022-09-29T14:33:52;98457.69;;;17.56;55.46
69035;BME280;56091;55.756;37.412;2022-09-29T14:38:56;98448.84;;;17.51;54.48
69035;BME280;56091;55.756;37.412;2022-09-29T14:44:01;98464.97;;;16.24;58.64
69035;BME280;56091;55.756;37.412;2022-09-29T14:55:13;98471.41;;;14.40;65.04
69035;BME280;56091;55.756;37.412;2022-09-29T15:00:21;98477.94;;;14.06;66.40
69035;BME280;56091;55.756;37.412;2022-09-29T15:10:31;98493.78;;;13.47;68.70
69035;BME280;56091;55.756;37.412;2022-09-29T15:15:39;98501.13;;;13.23;68.95
69035;BME280;56091;55.756;37.412;2022-09-29T15:25:54;98514.94;;;12.97;70.31
69035;BME280;56091;55.756;37.412;2022-09-29T15:31:02;98509.91;;;12.91;70.87
69035;BME280;56091;55.756;37.412;2022-09-29T15:36:16;98532.88;;;12.93;71.15
69035;BME280;56091;55.756;37.412;2022-09-29T15:41:19;98523.72;;;12.89;71.17
69035;BME280;56091;55.756;37.412;2022-09-29T15:51:36;98546.38;;;12.69;72.61
69035;BME280;56091;55.756;37.412;2022-09-29T15:56:37;98540.56;;;12.57;73.02
69035;BME280;56091;55.756;37.412;2022-09-29T16:02:03;98534.00;;;12.39;73.37
69035;BME280;56091;55.756;37.412;2022-09-29T16:07:05;98554.22;;;12.41;73.61
69035;BME280;56091;55.756;37.412;2022-09-29T16:12:06;98558.84;;;12.41;74.14
69035;BME280;56091;55.756;37.412;2022-09-29T16:17:07;98568.03;;;12.40;74.35
69035;BME280;56091;55.756;37.412;2022-09-29T16:22:16;98570.50;;;12.36;74.01
69035;BME280;56091;55.756;37.412;2022-09-29T16:27:42;98574.91;;;12.27;73.81
69035;BME280;56091;55.756;37.412;2022-09-29T16:38:36;98585.22;;;12.20;74.18
69035;BME280;56091;55.756;37.412;2022-09-29T16:43:38;98595.28;;;12.14;74.52
69035;BME280;56091;55.756;37.412;2022-09-29T16:48:42;98600.16;;;12.12;74.54
69035;BME280;56091;55.756;37.412;2022-09-29T16:53:46;98605.34;;;12.08;75.13
69035;BME280;56091;55.756;37.412;2022-09-29T16:59:14;98613.72;;;12.07;75.79
69035;BME280;56091;55.756;37.412;2022-09-29T17:04:15;98605.09;;;12.05;76.48
69035;BME280;56091;55.756;37.412;2022-09-29T17:09:21;98595.38;;;11.99;77.16
69035;BME280;56091;55.756;37.412;2022-09-29T17:14:24;98622.13;;;12.00;77.81
69035;BME280;56091;55.756;37.412;2022-09-29T17:19:25;98603.28;;;11.85;78.38
69035;BME280;56091;55.756;37.412;2022-09-29T17:24:26;98628.94;;;11.93;78.50
69035;BME280;56091;55.756;37.412;2022-09-29T17:29:29;98635.44;;;11.86;78.71
69035;BME280;56091;55.756;37.412;2022-09-29T17:34:30;98627.88;;;11.83;78.67
69035;BME280;56091;55.756;37.412;2022-09-29T17:39:37;98650.06;;;11.80;78.77
69035;BME280;56091;55.756;37.412;2022-09-29T17:44:38;98624.22;;;11.59;78.43
69035;BME280;56091;55.756;37.412;2022-09-29T17:49:44;98619.91;;;11.58;77.91
69035;BME280;56091;55.756;37.412;2022-09-29T17:54:49;98640.38;;;11.69;77.64
69035;BME280;56091;55.756;37.412;2022-09-29T17:59:50;98627.41;;;11.66;77.07
69035;BME280;56091;55.756;37.412;2022-09-29T18:04:51;98625.25;;;11.68;77.24
69035;BME280;56091;55.756;37.412;2022-09-29T18:09:53;98630.63;;;11.73;77.17
69035;BME280;56091;55.756;37.412;2022-09-29T18:14:55;98636.03;;;11.73;76.60
69035;BME280;56091;55.756;37.412;2022-09-29T18:19:56;98623.06;;;11.75;75.92
69035;BME280;56091;55.756;37.412;2022-09-29T18:24:59;98626.81;;;11.79;75.99
69035;BME280;56091;55.756;37.412;2022-09-29T18:30:01;98609.63;;;11.65;75.40
69035;BME280;56091;55.756;37.412;2022-09-29T18:35:12;98642.22;;;11.79;75.63
69035;BME280;56091;55.756;37.412;2022-09-29T18:40:24;98654.09;;;11.83;74.64
69035;BME280;56091;55.756;37.412;2022-09-29T18:45:28;98637.94;;;11.72;74.92
69035;BME280;56091;55.756;37.412;2022-09-29T18:50:36;98670.03;;;11.84;74.60
69035;BME280;56091;55.756;37.412;2022-09-29T18:55:43;98675.19;;;11.81;74.54
69035;BME280;56091;55.756;37.412;2022-09-29T19:00:46;98678.41;;;11.78;74.94
69035;BME280;56091;55.756;37.412;2022-09-29T19:05:49;98686.25;;;11.79;74.50
69035;BME280;56091;55.756;37.412;2022-09-29T19:10:53;98683.03;;;11.72;74.87
69035;BME280;56091;55.756;37.412;2022-09-29T19:15:56;98689.78;;;11.75;74.47
69035;BME280;56091;55.756;37.412;2022-09-29T19:20:57;98693.84;;;11.72;74.24
69035;BME280;56091;55.756;37.412;2022-09-29T19:25:59;98699.78;;;11.74;74.01
69035;BME280;56091;55.756;37.412;2022-09-29T19:31:13;98705.75;;;11.76;74.18
69035;BME280;56091;55.756;37.412;2022-09-29T19:36:17;98705.75;;;11.71;74.01
69035;BME280;56091;55.756;37.412;2022-09-29T19:41:21;98686.84;;;11.61;74.09
69035;BME280;56091;55.756;37.412;2022-09-29T19:46:22;98708.19;;;11.67;73.90
69035;BME280;56091;55.756;37.412;2022-09-29T19:51:23;98713.88;;;11.61;74.08
69035;BME280;56091;55.756;37.412;2022-09-29T19:56:51;98702.84;;;11.47;74.63
69035;BME280;56091;55.756;37.412;2022-09-29T20:01:53;98690.72;;;11.39;75.48
69035;BME280;56091;55.756;37.412;2022-09-29T20:06:55;98687.53;;;11.27;75.35
69035;BME280;56091;55.756;37.412;2022-09-29T20:11:56;98678.91;;;11.14;75.18
69035;BME280;56091;55.756;37.412;2022-09-29T20:16:57;98705.84;;;11.30;74.89
69035;BME280;56091;55.756;37.412;2022-09-29T20:21:58;98691.28;;;11.21;74.71
69035;BME280;56091;55.756;37.412;2022-09-29T20:26:59;98697.22;;;11.28;74.44
69035;BME280;56091;55.756;37.412;2022-09-29T20:32:00;98683.47;;;11.24;74.69
69035;BME280;56091;55.756;37.412;2022-09-29T20:37:01;98697.22;;;11.33;74.81
69035;BME280;56091;55.756;37.412;2022-09-29T20:42:08;98698.03;;;11.28;74.41
69035;BME280;56091;55.756;37.412;2022-09-29T20:47:09;98707.22;;;11.27;74.64
69035;BME280;56091;55.756;37.412;2022-09-29T20:52:09;98652.50;;;10.91;74.23
69035;BME280;56091;55.756;37.412;2022-09-29T20:57:10;98688.88;;;11.19;74.19
69035;BME280;56091;55.756;37.412;2022-09-29T21:02:12;98694.53;;;11.28;73.93
69035;BME280;56091;55.756;37.412;2022-09-29T21:07:12;98708.00;;;11.38;73.44
69035;BME280;56091;55.756;37.412;2022-09-29T21:12:32;98722.56;;;11.47;72.84
69035;BME280;56091;55.756;37.412;2022-09-29T21:17:33;98734.16;;;11.53;72.70
69035;BME280;56091;55.756;37.412;2022-09-29T21:22:47;98726.63;;;11.45;72.65
69035;BME280;56091;55.756;37.412;2022-09-29T21:27:49;98721.75;;;11.42;72.01
69035;BME280;56091;55.756;37.412;2022-09-29T21:32:50;98747.94;;;11.51;72.36
69035;BME280;56091;55.756;37.412;2022-09-29T21:37:56;98754.69;;;11.54;72.02
69035;BME280;56091;55.756;37.412;2022-09-29T21:43:15;98759.81;;;11.50;71.90
69035;BME280;56091;55.756;37.412;2022-09-29T21:48:16;98757.41;;;11.44;71.99
69035;BME280;56091;55.756;37.412;2022-09-29T21:53:21;98757.44;;;11.39;72.05
69035;BME280;56091;55.756;37.412;2022-09-29T21:58:31;98743.38;;;11.31;72.44
69035;BME280;56091;55.756;37.412;2022-09-29T22:03:44;98751.22;;;11.23;72.77
69035;BME280;56091;55.756;37.412;2022-09-29T22:08:47;98761.22;;;11.22;73.14
69035;BME280;56091;55.756;37.412;2022-09-29T22:14:01;98765.53;;;11.23;73.45
69035;BME280;56091;55.756;37.412;2022-09-29T22:19:04;98763.38;;;11.15;73.35
69035;BME280;56091;55.756;37.412;2022-09-29T22:24:05;98771.75;;;11.13;73.41
69035;BME280;56091;55.756;37.412;2022-09-29T22:29:06;98762.56;;;11.14;73.50
69035;BME280;56091;55.756;37.412;2022-09-29T22:34:08;98753.66;;;11.14;73.23
69035;BME280;56091;55.756;37.412;2022-09-29T22:39:11;98754.47;;;11.09;73.08
69035;BME280;56091;55.756;37.412;2022-09-29T22:44:11;98765.53;;;11.23;72.62
69035;BME280;56091;55.756;37.412;2022-09-29T22:49:15;98770.13;;;11.23;72.47
69035;BME280;56091;55.756;37.412;2022-09-29T22:54:18;98777.16;;;11.29;71.91
69035;BME280;56091;55.756;37.412;2022-09-29T22:59:19;98780.91;;;11.33;71.94
69035;BME280;56091;55.756;37.412;2022-09-29T23:04:21;98766.34;;;11.29;71.91
69035;BME280;56091;55.756;37.412;2022-09-29T23:09:22;98770.38;;;11.31;71.76
69035;BME280;56091;55.756;37.412;2022-09-29T23:14:23;98774.97;;;11.36;71.67
69035;BME280;56091;55.756;37.412;2022-09-29T23:19:24;98786.31;;;11.33;71.60
69035;BME280;56091;55.756;37.412;2022-09-29T23:24:25;98785.22;;;11.34;71.79
69035;BME280;56091;55.756;37.412;2022-09-29T23:29:25;98786.84;;;11.35;71.45
69035;BME280;56091;55.756;37.412;2022-09-29T23:34:26;98788.72;;;11.40;71.47
69035;BME280;56091;55.756;37.412;2022-09-29T23:39:27;98782.25;;;11.41;71.82
69035;BME280;56091;55.756;37.412;2022-09-29T23:44:28;98773.09;;;11.37;71.81
69035;BME280;56091;55.756;37.412;2022-09-29T23:49:29;98773.34;;;11.30;72.00
69035;BME280;56091;55.756;37.412;2022-09-29T23:54:30;98786.59;;;11.26;72.45
69035;BME280;56091;55.756;37.412;2022-09-29T23:59:31;98786.31;;;11.12;72.79
